Time;durP1;ratioP1;P1;durP2;ratioP2;P2;SDS_P1;SDS_P2;PMS_P1;PMS_P2;Temp;Humidity;BMP_temperature;BMP_pressure;BME280_temperature;BME280_humidity;BME280_pressure;Samples;Min_cycle;Max_cycle;Signal;HPM_P1;HPM_P2
2022/08/22 00:00:12;;;;;;;32.80;8.15;;;;;;;16.43;100.00;97933.72;5015926;28;20034;-54
2022/08/22 00:02:47;;;;;;;30.65;8.27;;;;;;;16.19;100.00;97947.53;5015303;28;20025;-54
2022/08/22 00:05:47;;;;;;;23.10;7.28;;;;;;;16.30;100.00;97939.81;5029778;28;20058;-53
2022/08/22 00:08:38;;;;;;;29.77;8.10;;;;;;;16.35;100.00;97932.44;5016270;28;20215;-53
2022/08/22 00:11:11;;;;;;;24.27;7.43;;;;;;;16.25;100.00;97936.63;5014427;28;20038;-53
2022/08/22 00:14:06;;;;;;;37.13;8.75;;;;;;;16.05;100.00;97940.53;5014980;28;20056;-54
2022/08/22 00:16:43;;;;;;;37.97;8.52;;;;;;;16.34;100.00;97935.19;5013527;28;20038;-54
2022/08/22 00:19:30;;;;;;;21.77;6.95;;;;;;;16.47;100.00;97935.19;5014457;28;20029;-53
2022/08/22 00:22:24;;;;;;;26.27;7.68;;;;;;;16.58;100.00;97938.00;5015309;28;20037;-53
2022/08/22 00:25:31;;;;;;;27.10;7.97;;;;;;;16.52;100.00;97927.84;5015966;28;20102;-53
2022/08/22 00:28:10;;;;;;;31.92;8.13;;;;;;;16.72;100.00;97929.97;5016806;28;20656;-53
2022/08/22 00:30:48;;;;;;;27.88;7.97;;;;;;;16.83;100.00;97937.19;5014780;28;20033;-53
2022/08/22 00:33:24;;;;;;;23.27;6.68;;;;;;;16.91;100.00;97934.06;5014768;28;20037;-54
2022/08/22 00:36:01;;;;;;;31.67;7.38;;;;;;;17.09;100.00;97927.53;5013117;28;20045;-54
2022/08/22 00:38:32;;;;;;;26.02;6.95;;;;;;;17.14;100.00;97930.69;5014613;28;20045;-54
2022/08/22 00:41:30;;;;;;;27.27;7.80;;;;;;;16.65;100.00;97939.28;5012187;28;20412;-54
2022/08/22 00:44:15;;;;;;;34.45;8.65;;;;;;;16.76;100.00;97934.13;5013832;28;20669;-53
2022/08/22 00:47:07;;;;;;;28.85;8.43;;;;;;;16.81;100.00;97940.88;5015325;28;20069;-53
2022/08/22 00:49:48;;;;;;;27.92;8.10;;;;;;;16.61;100.00;97943.03;5013772;28;20018;-53
2022/08/22 00:52:40;;;;;;;23.67;7.70;;;;;;;16.40;100.00;97942.66;5013266;28;20433;-53
2022/08/22 00:55:25;;;;;;;27.52;8.43;;;;;;;16.53;100.00;97946.19;5014144;28;20120;-54
2022/08/22 00:58:04;;;;;;;32.28;8.45;;;;;;;16.33;100.00;97944.84;5016154;28;20903;-53
2022/08/22 01:00:38;;;;;;;30.38;8.10;;;;;;;16.46;100.00;97944.06;5014479;28;20102;-53
2022/08/22 01:03:25;;;;;;;30.60;8.55;;;;;;;16.64;100.00;97942.84;5013133;28;20550;-53
2022/08/22 01:06:19;;;;;;;32.45;8.30;;;;;;;16.55;100.00;97941.66;5014753;28;20596;-52
2022/08/22 01:09:00;;;;;;;27.50;7.40;;;;;;;16.67;100.00;97941.78;5013538;28;20045;-53
2022/08/22 01:11:46;;;;;;;27.80;7.25;;;;;;;16.67;100.00;97939.13;5013114;28;20029;-53
2022/08/22 01:14:19;;;;;;;32.28;8.05;;;;;;;16.45;100.00;97942.34;5015390;28;20077;-53
2022/08/22 01:16:59;;;;;;;26.83;7.90;;;;;;;16.50;100.00;97941.09;5014398;28;20651;-53
2022/08/22 01:19:55;;;;;;;28.63;8.50;;;;;;;16.30;100.00;97947.69;5014659;28;20022;-53
2022/08/22 01:22:55;;;;;;;33.72;8.68;;;;;;;16.11;100.00;97961.19;5013621;28;20034;-53
2022/08/22 01:26:17;;;;;;;29.08;8.00;;;;;;;16.32;100.00;97940.53;5013501;28;20038;-52
2022/08/22 01:28:49;;;;;;;32.65;8.15;;;;;;;16.29;100.00;97942.53;5009336;28;20129;-53
2022/08/22 01:31:39;;;;;;;27.67;8.80;;;;;;;16.09;100.00;97949.09;5007267;28;20147;-53
2022/08/22 01:34:04;;;;;;;33.95;9.23;;;;;;;16.12;100.00;97946.22;5012748;28;20040;-52
2022/08/22 01:36:45;;;;;;;24.75;7.65;;;;;;;16.47;100.00;97937.81;5014705;28;20046;-53
2022/08/22 01:39:39;;;;;;;35.63;9.13;;;;;;;16.12;100.00;97938.34;5013488;28;20022;-53
2022/08/22 01:42:19;;;;;;;33.85;8.85;;;;;;;16.22;100.00;97934.19;5010307;28;20400;-53
2022/08/22 01:45:05;;;;;;;27.25;7.93;;;;;;;16.28;100.00;97932.94;5015492;28;20087;-53
2022/08/22 01:47:47;;;;;;;28.48;8.90;;;;;;;15.91;100.00;97928.25;5014234;28;20043;-54
2022/08/22 01:50:29;;;;;;;47.90;9.75;;;;;;;16.36;100.00;97931.50;5013205;28;20028;-53
2022/08/22 01:53:01;;;;;;;;;;;;;;;16.69;100.00;97930.22;5014911;28;20693;-54
2022/08/22 01:55:51;;;;;;;30.55;8.40;;;;;;;16.10;100.00;97924.44;5018385;28;19948;-53
2022/08/22 01:58:27;;;;;;;33.60;9.18;;;;;;;16.13;100.00;97932.16;5013329;28;20021;-53
2022/08/22 02:01:07;;;;;;;29.73;8.75;;;;;;;15.97;100.00;97943.66;5011033;28;20041;-53
2022/08/22 02:03:49;;;;;;;30.15;7.82;;;;;;;16.34;100.00;97936.03;5012614;28;20105;-53
2022/08/22 02:06:18;;;;;;;;;;;;;;;16.17;100.00;97938.91;5013234;28;20037;-53
2022/08/22 02:09:00;;;;;;;23.15;7.00;;;;;;;16.31;100.00;97936.22;5013129;28;19913;-53
2022/08/22 02:12:19;;;;;;;36.15;9.68;;;;;;;15.92;100.00;97937.03;5010376;28;20565;-52
2022/08/22 02:15:01;;;;;;;27.58;8.20;;;;;;;15.79;100.00;97932.53;5018358;28;20466;-53
2022/08/22 02:17:32;;;;;;;34.20;9.27;;;;;;;15.75;100.00;97931.03;5016832;28;20038;-53
2022/08/22 02:20:16;;;;;;;28.70;8.10;;;;;;;15.88;100.00;97933.75;5013614;28;20116;-53
2022/08/22 02:22:56;;;;;;;28.35;8.00;;;;;;;16.16;100.00;97935.44;5012224;28;20732;-52
2022/08/22 02:25:33;;;;;;;28.42;8.02;;;;;;;16.11;100.00;97934.03;5010855;28;20656;-53
2022/08/22 02:28:08;;;;;;;27.67;8.00;;;;;;;16.19;100.00;97931.75;5012648;28;20061;-53
2022/08/22 02:30:49;;;;;;;31.80;8.82;;;;;;;15.75;100.00;97953.84;5017147;28;20029;-53
2022/08/22 02:33:44;;;;;;;28.95;7.88;;;;;;;15.80;100.00;97943.88;5012633;28;20036;-53
2022/08/22 02:36:24;;;;;;;29.77;8.55;;;;;;;15.39;100.00;97939.41;5012972;28;20496;-53
2022/08/22 02:39:02;;;;;;;31.35;8.63;;;;;;;15.82;100.00;97944.63;5011969;28;20091;-53
2022/08/22 02:41:55;;;;;;;29.95;8.80;;;;;;;15.44;100.00;97947.84;5010685;28;20049;-53
2022/08/22 02:44:26;;;;;;;;;;;;;;;15.50;100.00;97951.88;5013146;28;20077;-53
2022/08/22 02:46:59;;;;;;;41.20;9.82;;;;;;;15.41;100.00;97950.66;5007224;28;20596;-53
2022/08/22 02:49:35;;;;;;;30.98;8.77;;;;;;;15.45;100.00;97957.41;5009812;28;20021;-53
2022/08/22 02:52:07;;;;;;;26.77;8.80;;;;;;;15.41;100.00;97953.28;5009695;28;20041;-53
2022/08/22 02:54:47;;;;;;;30.48;8.70;;;;;;;15.40;100.00;97957.72;5013557;28;20129;-53
2022/08/22 02:57:19;;;;;;;26.80;8.82;;;;;;;15.45;100.00;97957.41;5008516;28;20049;-53
2022/08/22 03:00:01;;;;;;;35.05;9.40;;;;;;;15.54;100.00;97951.59;5012447;28;20029;-53
2022/08/22 03:02:38;;;;;;;;;;;;;;;15.27;100.00;97953.28;5013379;28;20049;-53
2022/08/22 03:05:27;;;;;;;34.97;9.30;;;;;;;15.38;100.00;97958.72;5010793;28;20605;-53
2022/08/22 03:08:11;;;;;;;39.80;10.02;;;;;;;15.59;100.00;97944.25;5013639;28;20041;-53
2022/08/22 03:10:44;;;;;;;28.17;8.90;;;;;;;15.52;100.00;97953.47;5010829;28;20041;-53
2022/08/22 03:13:17;;;;;;;29.30;8.93;;;;;;;15.41;100.00;97955.91;5011642;28;20033;-53
2022/08/22 03:16:03;;;;;;;30.35;9.50;;;;;;;15.10;100.00;97957.78;5010315;28;20037;-53
2022/08/22 03:19:01;;;;;;;31.42;9.20;;;;;;;15.31;100.00;97954.78;5010321;28;20021;-53
2022/08/22 03:21:29;;;;;;;31.88;9.38;;;;;;;15.32;100.00;97964.38;5009456;28;20114;-53
2022/08/22 03:24:08;;;;;;;34.00;9.63;;;;;;;15.49;100.00;97960.69;5016056;28;20057;-52
2022/08/22 03:26:39;;;;;;;32.80;9.15;;;;;;;15.31;100.00;97965.28;5011554;28;20034;-53
2022/08/22 03:29:10;;;;;;;38.95;10.35;;;;;;;15.17;100.00;97969.59;5012569;28;20036;-53
2022/08/22 03:31:36;;;;;;;32.77;9.40;;;;;;;15.59;100.00;97964.47;5010648;28;20029;-53
2022/08/22 03:34:21;;;;;;;34.65;9.20;;;;;;;15.30;100.00;97963.63;5012198;28;20362;-53
2022/08/22 03:37:01;;;;;;;31.17;8.73;;;;;;;15.15;100.00;97963.59;5010679;28;20119;-53
2022/08/22 03:39:50;;;;;;;25.67;7.18;;;;;;;15.74;100.00;97974.03;5012641;28;20144;-53
2022/08/22 03:42:37;;;;;;;32.53;8.20;;;;;;;15.74;100.00;97960.06;5025482;28;20041;-53
2022/08/22 03:45:20;;;;;;;30.80;9.05;;;;;;;15.19;100.00;97969.50;5012452;28;20068;-53
2022/08/22 03:48:28;;;;;;;29.02;8.45;;;;;;;15.15;100.00;97976.72;5011994;28;20568;-53
2022/08/22 03:51:19;;;;;;;34.83;9.32;;;;;;;15.00;100.00;97981.13;5011625;28;20041;-53
2022/08/22 03:53:47;;;;;;;28.65;8.40;;;;;;;15.16;100.00;97978.44;5012004;28;20091;-53
2022/08/22 03:56:18;;;;;;;33.35;9.45;;;;;;;15.09;100.00;97982.38;5010378;28;20034;-53
2022/08/22 03:58:59;;;;;;;34.95;9.27;;;;;;;15.07;100.00;97983.38;5012197;28;20045;-54
2022/08/22 04:01:30;;;;;;;35.67;9.45;;;;;;;15.45;100.00;97983.69;5009348;28;20602;-53
2022/08/22 04:04:08;;;;;;;30.27;8.88;;;;;;;15.21;100.00;97980.78;5009065;28;20036;-56
2022/08/22 04:07:09;;;;;;;30.90;9.23;;;;;;;14.84;100.00;97988.22;5011893;28;20041;-53
2022/08/22 04:10:13;;;;;;;38.97;10.30;;;;;;;14.68;100.00;97987.41;5011000;28;20468;-53
2022/08/22 04:12:44;;;;;;;33.85;9.45;;;;;;;14.53;100.00;97991.75;5011185;28;20045;-53
2022/08/22 04:15:27;;;;;;;28.05;9.23;;;;;;;14.76;100.00;97993.91;5010776;28;20033;-53
2022/08/22 04:18:14;;;;;;;29.90;8.52;;;;;;;14.75;100.00;97996.63;5008978;28;20030;-52
2022/08/22 04:20:58;;;;;;;35.38;8.85;;;;;;;14.78;100.00;97984.16;5015329;28;20146;-53
2022/08/22 04:23:26;;;;;;;34.78;8.38;;;;;;;14.89;100.00;97996.69;5009288;28;20531;-53
2022/08/22 04:26:00;;;;;;;32.65;9.75;;;;;;;14.68;100.00;97998.75;5011161;28;20047;-53
2022/08/22 04:28:34;;;;;;;40.00;10.13;;;;;;;14.89;100.00;98001.94;5010770;28;20034;-53
2022/08/22 04:31:16;;;;;;;31.58;8.63;;;;;;;14.84;100.00;97991.69;5010589;28;20041;-53
2022/08/22 04:33:58;;;;;;;26.98;8.07;;;;;;;15.20;100.00;97984.31;5010799;28;20033;-53
2022/08/22 04:36:31;;;;;;;29.35;7.88;;;;;;;15.48;100.00;97993.19;5018416;28;20037;-53
2022/08/22 04:39:17;;;;;;;30.30;9.20;;;;;;;14.89;100.00;97990.56;5014929;28;20052;-53
2022/08/22 04:41:54;;;;;;;32.83;8.10;;;;;;;15.23;100.00;97994.66;5016212;28;20591;-53
2022/08/22 04:44:48;;;;;;;27.35;9.00;;;;;;;14.43;100.00;98000.13;5016826;28;20036;-52
2022/08/22 04:47:20;;;;;;;31.23;9.32;;;;;;;14.64;100.00;97992.00;5013090;28;20038;-53
2022/08/22 04:49:56;;;;;;;27.27;9.55;;;;;;;14.27;100.00;98004.56;5015532;28;20599;-53
2022/08/22 04:52:55;;;;;;;28.77;8.98;;;;;;;14.30;100.00;98001.75;5015366;28;20045;-53
2022/08/22 04:55:24;;;;;;;27.63;8.43;;;;;;;14.59;100.00;98004.53;5014271;28;20029;-54
2022/08/22 04:58:11;;;;;;;36.55;9.55;;;;;;;14.52;100.00;98003.16;5013450;28;20582;-53
2022/08/22 05:00:55;;;;;;;28.90;8.15;;;;;;;14.90;100.00;98003.59;5013019;28;20095;-53
2022/08/22 05:03:24;;;;;;;25.52;8.30;;;;;;;15.08;100.00;98001.69;5010748;28;20068;-53
2022/08/22 05:05:53;;;;;;;39.22;9.75;;;;;;;15.27;100.00;97992.69;5011401;28;20132;-53
2022/08/22 05:08:24;;;;;;;29.00;7.97;;;;;;;15.34;100.00;98001.91;5013075;28;20032;-53
2022/08/22 05:10:51;;;;;;;35.13;8.37;;;;;;;15.81;100.00;98003.44;5014830;28;20038;-53
2022/08/22 05:13:37;;;;;;;27.42;7.47;;;;;;;15.95;100.00;98008.69;5015987;28;20273;-52
2022/08/22 05:16:08;;;;;;;29.40;7.75;;;;;;;16.20;100.00;97991.34;5013488;28;20042;-53
2022/08/22 05:18:48;;;;;;;29.02;7.60;;;;;;;16.18;100.00;98001.97;5013344;28;20468;-53
2022/08/22 05:21:16;;;;;;;26.02;7.25;;;;;;;16.07;100.00;98003.59;5012225;28;20691;-53
2022/08/22 05:23:50;;;;;;;31.92;8.30;;;;;;;15.97;100.00;98006.81;5015202;28;20037;-53
2022/08/22 05:26:18;;;;;;;27.83;8.77;;;;;;;15.52;100.00;98005.19;5014197;28;20124;-53
2022/08/22 05:28:51;;;;;;;31.90;8.88;;;;;;;15.86;100.00;98025.03;5014824;28;20137;-55
2022/08/22 05:31:25;;;;;;;19.70;7.57;;;;;;;16.47;100.00;98008.91;5011911;28;20124;-53
2022/08/22 05:33:57;;;;;;;26.38;7.72;;;;;;;17.17;100.00;97986.75;5016090;28;20554;-53
2022/08/22 05:36:26;;;;;;;28.73;8.80;;;;;;;16.66;100.00;97992.78;5012886;28;20062;-53
2022/08/22 05:39:03;;;;;;;24.98;8.07;;;;;;;16.85;100.00;97987.16;5011021;28;20026;-53
2022/08/22 05:41:39;;;;;;;41.28;12.82;;;;;;;17.76;100.00;97988.88;5010154;28;20044;-52
2022/08/22 05:44:17;;;;;;;38.05;11.18;;;;;;;18.29;100.00;97984.19;5011334;28;20028;-53
2022/08/22 05:46:48;;;;;;;37.63;10.00;;;;;;;19.83;100.00;97970.78;5012899;28;20038;-52
2022/08/22 05:49:27;;;;;;;31.75;8.10;;;;;;;22.10;100.00;97960.66;5012448;28;20049;-54
2022/08/22 05:52:09;;;;;;;33.25;7.82;;;;;;;23.39;100.00;97942.72;5013903;28;20041;-53
2022/08/22 05:54:50;;;;;;;25.88;6.88;;;;;;;24.46;100.00;97940.47;5012609;28;20026;-53
2022/08/22 05:57:18;;;;;;;30.02;7.15;;;;;;;25.06;100.00;97935.34;5011243;28;20038;-53
2022/08/22 05:59:47;;;;;;;22.10;6.15;;;;;;;25.25;100.00;97939.66;5011779;28;20028;-56
2022/08/22 06:02:25;;;;;;;29.65;7.20;;;;;;;24.40;100.00;97936.59;5010039;28;20435;-55
2022/08/22 06:05:00;;;;;;;17.75;6.15;;;;;;;23.57;100.00;97934.81;5012746;28;20048;-55
2022/08/22 06:07:46;;;;;;;22.00;6.35;;;;;;;23.85;100.00;97937.50;5013007;28;20051;-53
2022/08/22 06:10:26;;;;;;;26.65;7.00;;;;;;;23.85;100.00;97937.50;5013339;28;20694;-54
2022/08/22 06:13:01;;;;;;;20.35;6.38;;;;;;;24.14;100.00;97925.84;5012709;28;20052;-53
2022/08/22 06:15:33;;;;;;;23.38;6.57;;;;;;;24.97;100.00;97944.28;5013533;28;20022;-53
2022/08/22 06:18:06;;;;;;;19.08;5.95;;;;;;;26.18;100.00;97938.09;5014690;28;20025;-53
2022/08/22 06:20:46;;;;;;;24.52;6.45;;;;;;;25.08;100.00;97932.50;5010771;28;20178;-54
2022/08/22 06:23:23;;;;;;;22.05;6.20;;;;;;;25.41;100.00;97930.09;5012520;28;20040;-53
2022/08/22 06:25:51;;;;;;;16.92;5.70;;;;;;;26.73;100.00;97935.66;5011295;28;20037;-54
2022/08/22 06:28:23;;;;;;;15.18;5.30;;;;;;;26.93;100.00;97935.34;5012037;28;20040;-53
2022/08/22 06:30:52;;;;;;;19.83;5.93;;;;;;;26.92;100.00;97942.50;5011632;28;20463;-53
2022/08/22 06:33:23;;;;;;;23.50;5.82;;;;;;;28.22;85.15;97936.13;5013956;28;20108;-54
2022/08/22 06:39:17;;;;;;;16.50;5.35;;;;;;;29.58;65.47;97934.50;5013614;28;20712;-53
2022/08/22 06:41:49;;;;;;;17.15;5.53;;;;;;;29.44;69.88;97935.34;5010429;28;20053;-54
2022/08/22 06:44:19;;;;;;;14.30;5.05;;;;;;;30.49;64.38;97940.41;5011327;28;20104;-54
2022/08/22 06:46:47;;;;;;;16.77;5.47;;;;;;;30.97;55.68;97933.59;5012398;28;20037;-53
2022/08/22 06:49:14;;;;;;;12.35;4.95;;;;;;;32.00;52.79;97934.66;5009862;28;20030;-53
2022/08/22 06:51:40;;;;;;;15.80;5.35;;;;;;;33.46;48.67;97932.38;5011826;28;20038;-54
2022/08/22 06:54:17;;;;;;;12.52;4.68;;;;;;;31.96;53.03;97941.47;5012231;28;20098;-53
2022/08/22 06:56:46;;;;;;;14.63;4.53;;;;;;;32.40;47.26;97932.09;5011091;28;20586;-54
2022/08/22 06:59:15;;;;;;;10.98;4.65;;;;;;;33.33;46.01;97928.63;5013201;28;20514;-53
2022/08/22 07:01:56;;;;;;;18.50;5.53;;;;;;;33.34;46.67;97930.31;5006152;28;20068;-53
2022/08/22 07:04:25;;;;;;;9.90;3.97;;;;;;;33.35;47.40;97925.72;5013936;28;20032;-54
2022/08/22 07:06:52;;;;;;;15.73;4.78;;;;;;;34.08;45.25;97930.91;5012713;28;20034;-53
2022/08/22 07:09:20;;;;;;;10.07;4.00;;;;;;;34.81;43.07;97934.25;5014961;28;20052;-53
2022/08/22 07:11:47;;;;;;;11.27;4.40;;;;;;;34.93;41.94;97927.09;5012267;28;20055;-54
2022/08/22 07:14:16;;;;;;;8.52;3.83;;;;;;;34.61;43.14;97929.81;5013767;28;20702;-54
2022/08/22 07:16:50;;;;;;;9.23;3.45;;;;;;;35.19;38.36;97926.03;5017938;28;20069;-54
2022/08/22 07:19:34;;;;;;;13.18;3.78;;;;;;;35.75;37.77;97924.22;5013941;28;20030;-54
2022/08/22 07:22:20;;;;;;;12.80;4.10;;;;;;;33.59;40.04;97922.31;5014590;28;20044;-50
2022/08/22 07:24:56;;;;;;;10.35;3.92;;;;;;;32.33;42.68;97923.16;5014524;28;20466;-52
2022/08/22 07:27:39;;;;;;;11.23;3.92;;;;;;;34.82;39.63;97919.69;5013247;28;20041;-54
2022/08/22 07:30:17;;;;;;;12.80;4.10;;;;;;;34.54;39.29;97926.31;5013527;28;20030;-51
2022/08/22 07:33:02;;;;;;;11.63;3.63;;;;;;;35.06;36.95;97918.00;4993455;28;20109;-58
2022/08/22 07:35:34;;;;;;;8.90;3.63;;;;;;;35.74;35.00;97911.72;5012459;28;20069;-55
2022/08/22 07:38:12;;;;;;;8.82;3.45;;;;;;;35.43;35.91;97916.19;5014338;28;20030;-52
2022/08/22 07:40:58;;;;;;;10.95;3.53;;;;;;;35.60;36.54;97916.41;5013376;28;20473;-53
2022/08/22 07:43:29;;;;;;;7.60;3.30;;;;;;;36.97;34.94;97909.56;5013754;28;20033;-52
2022/08/22 07:46:00;;;;;;;;;;;;;;;34.82;37.61;97914.25;5013762;28;20647;-53
2022/08/22 07:48:33;;;;;;;8.25;3.58;;;;;;;36.76;34.69;97897.38;5012449;28;19920;-54
2022/08/22 07:51:04;;;;;;;8.30;3.30;;;;;;;37.09;34.71;97906.00;5012183;28;20415;-53
2022/08/22 07:53:41;;;;;;;9.60;3.40;;;;;;;37.30;33.85;97910.88;5013458;28;20044;-53
2022/08/22 07:56:13;;;;;;;8.23;3.22;;;;;;;38.33;32.45;97910.31;5013930;28;20064;-54
2022/08/22 07:58:41;;;;;;;7.40;3.20;;;;;;;35.66;34.17;97907.41;5015220;28;20029;-54
2022/08/22 08:01:10;;;;;;;8.32;3.40;;;;;;;38.54;31.03;97897.84;5011212;28;20072;-54
2022/08/22 08:03:37;;;;;;;8.07;3.45;;;;;;;38.92;30.30;97907.22;5013534;28;20026;-54
2022/08/22 08:06:04;;;;;;;7.45;3.10;;;;;;;36.66;33.24;97907.97;5010836;28;20029;-53
2022/08/22 08:08:39;;;;;;;6.50;2.88;;;;;;;37.32;28.48;97906.03;5014651;28;20033;-55
2022/08/22 08:11:09;;;;;;;9.00;3.15;;;;;;;37.78;30.54;97904.31;5013545;28;20562;-54
2022/08/22 08:13:38;;;;;;;10.88;3.22;;;;;;;37.35;31.14;97899.28;5018543;28;20124;-52
2022/08/22 08:16:08;;;;;;;7.43;3.00;;;;;;;36.80;32.15;97905.91;5017619;28;20037;-51
2022/08/22 08:18:35;;;;;;;8.45;3.42;;;;;;;36.82;30.22;97901.88;5018346;28;20029;-52
2022/08/22 08:21:09;;;;;;;8.50;2.97;;;;;;;35.28;31.88;97902.19;5015905;28;20045;-54
2022/08/22 08:23:40;;;;;;;9.27;3.33;;;;;;;38.54;28.54;97906.84;5018018;28;20053;-52
2022/08/22 08:26:11;;;;;;;6.97;2.80;;;;;;;34.15;33.07;97914.63;5023833;28;20662;-52
2022/08/22 08:28:45;;;;;;;7.85;3.00;;;;;;;36.41;29.32;97908.97;5015685;28;20032;-52
2022/08/22 08:31:38;;;;;;;11.30;2.80;;;;;;;35.76;30.24;97901.47;5016823;28;20036;-52
2022/08/22 08:34:09;;;;;;;9.05;2.90;;;;;;;36.91;28.85;97906.94;5017247;28;20053;-52
2022/08/22 08:36:58;;;;;;;9.60;3.10;;;;;;;36.05;29.90;97905.25;5015859;28;20029;-52
2022/08/22 08:39:36;;;;;;;8.98;3.05;;;;;;;34.65;32.06;97903.94;5012186;28;20111;-52
2022/08/22 08:42:21;;;;;;;8.07;2.85;;;;;;;37.64;28.04;97902.13;5015448;28;20500;-52
2022/08/22 08:45:10;;;;;;;9.73;3.00;;;;;;;38.07;26.73;97901.63;5016477;28;20439;-52
2022/08/22 08:47:49;;;;;;;10.07;3.78;;;;;;;34.60;30.73;97895.63;5012100;28;20077;-52
2022/08/22 08:50:19;;;;;;;8.48;3.08;;;;;;;32.69;34.31;97900.38;5017411;28;20026;-52
2022/08/22 08:52:53;;;;;;;9.43;3.10;;;;;;;32.05;34.55;97897.13;5015273;28;20030;-52
2022/08/22 08:55:28;;;;;;;13.65;3.60;;;;;;;30.91;34.98;97903.72;5016453;28;20025;-52
2022/08/22 08:58:34;;;;;;;14.65;3.80;;;;;;;34.56;31.26;97894.44;5016550;28;20403;-53
2022/08/22 09:01:37;;;;;;;15.82;3.67;;;;;;;32.85;33.51;97889.16;5014568;28;20696;-51
2022/08/22 09:04:05;;;;;;;16.35;3.70;;;;;;;34.96;30.08;97886.00;5014684;28;20036;-53
2022/08/22 09:06:53;;;;;;;14.20;3.25;;;;;;;32.04;34.20;97892.78;5016617;28;20041;-51
2022/08/22 09:09:36;;;;;;;14.10;3.55;;;;;;;33.61;31.29;97890.50;5015112;28;20018;-52
2022/08/22 09:12:35;;;;;;;15.07;3.80;;;;;;;32.26;32.73;97889.94;5013234;28;20095;-52
2022/08/22 09:15:06;;;;;;;14.55;3.85;;;;;;;34.78;30.13;97889.50;5017310;28;20061;-52
2022/08/22 09:17:37;;;;;;;;;;;;;;;34.82;31.23;97888.00;5017183;28;20034;-53
2022/08/22 09:20:36;;;;;;;18.25;4.20;;;;;;;32.83;34.13;97888.56;5013938;28;19913;-57
2022/08/22 09:23:11;;;;;;;15.95;4.07;;;;;;;32.23;34.87;97887.63;5014447;28;20025;-53
2022/08/22 09:25:48;;;;;;;19.52;4.13;;;;;;;30.93;37.14;97890.06;5014341;28;20061;-54
2022/08/22 09:28:33;;;;;;;13.95;3.53;;;;;;;31.94;35.55;97897.69;5016492;28;20033;-55
2022/08/22 09:31:10;;;;;;;16.35;3.88;;;;;;;33.01;33.82;97887.06;5013647;28;20052;-54
2022/08/22 09:33:51;;;;;;;12.40;3.20;;;;;;;32.18;34.75;97893.63;5016776;28;20025;-53
2022/08/22 09:36:30;;;;;;;16.58;4.22;;;;;;;32.23;34.40;97882.25;5015548;28;20041;-51
2022/08/22 09:39:15;;;;;;;14.90;3.78;;;;;;;34.37;32.20;97880.81;5016538;28;20587;-52
2022/08/22 09:41:57;;;;;;;13.23;3.60;;;;;;;34.52;32.41;97888.63;5014624;28;20159;-51
2022/08/22 09:44:44;;;;;;;14.07;3.70;;;;;;;31.47;35.69;97886.72;5014710;28;20040;-52
2022/08/22 09:47:25;;;;;;;11.48;3.30;;;;;;;31.16;36.19;97886.31;5015378;28;20116;-51
2022/08/22 09:50:12;;;;;;;12.68;3.45;;;;;;;30.12;37.26;97895.69;5016011;28;20101;-53
2022/08/22 09:52:56;;;;;;;11.30;3.15;;;;;;;30.88;34.80;97893.31;5016669;28;20083;-53
2022/08/22 09:55:46;;;;;;;16.90;3.85;;;;;;;29.76;36.69;97891.16;5014739;28;20021;-53
2022/08/22 09:58:41;;;;;;;26.67;4.03;;;;;;;30.04;36.58;97893.13;5015456;28;20155;-52
2022/08/22 10:01:31;;;;;;;14.57;3.30;;;;;;;29.10;39.26;97882.97;5018233;28;20486;-54
2022/08/22 10:04:06;;;;;;;15.50;3.70;;;;;;;28.71;39.62;97895.56;5014703;28;20031;-55
2022/08/22 10:06:51;;;;;;;19.95;4.25;;;;;;;28.10;39.74;97887.41;5014074;28;20511;-52
2022/08/22 10:09:53;;;;;;;13.90;3.50;;;;;;;30.20;36.20;97883.97;5017372;28;20972;-52
2022/08/22 10:12:29;;;;;;;17.20;3.75;;;;;;;31.51;33.81;97876.38;5013723;28;20046;-52
2022/08/22 10:15:30;;;;;;;15.52;3.42;;;;;;;30.37;35.77;97885.44;4997129;28;20053;-52
2022/08/22 10:18:22;;;;;;;11.70;3.20;;;;;;;28.51;37.82;97884.47;5017018;28;20056;-54
2022/08/22 10:21:03;;;;;;;17.73;3.60;;;;;;;29.13;37.06;97878.06;5013990;28;20038;-54
2022/08/22 10:23:37;;;;;;;19.02;3.90;;;;;;;30.47;35.68;97891.28;5016559;28;20029;-51
2022/08/22 10:26:27;;;;;;;16.70;3.33;;;;;;;31.04;33.96;97889.50;5015711;28;20478;-51
2022/08/22 10:29:09;;;;;;;13.85;3.47;;;;;;;31.81;33.74;97886.84;5017100;28;20687;-54
2022/08/22 10:32:01;;;;;;;17.85;3.97;;;;;;;29.73;35.49;97900.38;5014599;28;20049;-54
2022/08/22 10:34:34;;;;;;;15.02;3.50;;;;;;;33.29;31.13;97886.88;5015257;28;20614;-54
2022/08/22 10:37:19;;;;;;;13.95;3.42;;;;;;;33.13;31.15;97885.44;5012768;28;20050;-52
2022/08/22 10:40:00;;;;;;;15.07;3.63;;;;;;;33.34;31.96;97884.34;5014878;28;20029;-56
2022/08/22 10:42:34;;;;;;;14.10;3.25;;;;;;;31.54;33.15;97886.75;5015454;28;20291;-56
2022/08/22 10:45:18;;;;;;;10.00;2.88;;;;;;;33.22;32.01;97884.16;5013843;28;20041;-54
2022/08/22 10:48:04;;;;;;;15.18;3.70;;;;;;;32.68;32.40;97898.75;5013993;28;20045;-54
2022/08/22 10:50:38;;;;;;;15.80;3.67;;;;;;;32.26;32.09;97889.94;5012000;28;20057;-55
2022/08/22 10:53:29;;;;;;;11.32;3.03;;;;;;;30.39;34.35;97894.13;5014339;28;20431;-55
2022/08/22 10:56:21;;;;;;;16.77;3.72;;;;;;;30.32;35.20;97885.13;5013886;28;20447;-56
2022/08/22 10:58:57;;;;;;;13.63;3.40;;;;;;;30.09;35.94;97883.47;5011718;28;20034;-54
2022/08/22 11:01:28;;;;;;;12.52;3.28;;;;;;;30.79;35.96;97872.94;5013398;28;20732;-57
2022/08/22 11:04:24;;;;;;;15.60;3.70;;;;;;;30.71;37.29;97881.16;5015361;28;20037;-56
2022/08/22 11:07:13;;;;;;;16.77;3.53;;;;;;;29.11;37.90;97874.69;5012247;28;20034;-54
2022/08/22 11:09:41;;;;;;;14.75;3.22;;;;;;;29.24;39.21;97878.63;5012683;28;20110;-55
2022/08/22 11:12:36;;;;;;;16.08;3.58;;;;;;;30.33;36.44;97876.91;5012272;28;20037;-55
2022/08/22 11:15:43;;;;;;;19.05;3.97;;;;;;;32.03;32.64;97874.09;5013700;28;20024;-54
2022/08/22 11:18:12;;;;;;;18.98;3.95;;;;;;;31.21;33.54;97871.19;5009812;28;20048;-54
2022/08/22 11:20:47;;;;;;;13.20;3.30;;;;;;;30.60;35.03;97868.22;5014112;28;20046;-54
2022/08/22 11:23:24;;;;;;;16.92;3.53;;;;;;;29.78;35.96;97876.47;5015358;28;20495;-53
2022/08/22 11:25:52;;;;;;;15.10;3.47;;;;;;;32.19;33.29;97867.50;5012219;28;20038;-53
2022/08/22 11:28:18;;;;;;;20.10;3.88;;;;;;;30.13;35.44;97868.59;5014147;28;20049;-54
2022/08/22 11:30:58;;;;;;;14.88;3.20;;;;;;;28.95;37.27;97870.34;5013724;28;20083;-54
2022/08/22 11:33:46;;;;;;;15.73;3.47;;;;;;;29.58;37.26;97864.63;5014475;28;20619;-54
2022/08/22 11:36:34;;;;;;;19.02;3.95;;;;;;;28.38;38.55;97857.41;5010601;28;20123;-54
2022/08/22 11:39:16;;;;;;;13.55;3.53;;;;;;;28.76;38.33;97855.59;5013065;28;20037;-54
2022/08/22 11:42:13;;;;;;;13.88;3.25;;;;;;;28.10;39.22;97854.44;5013854;28;20396;-54
2022/08/22 11:44:49;;;;;;;14.80;3.47;;;;;;;27.81;39.72;97846.03;5013966;28;20038;-54
2022/08/22 11:47:19;;;;;;;15.98;3.60;;;;;;;28.19;39.14;97837.25;5011815;28;20083;-54
2022/08/22 11:49:56;;;;;;;21.85;3.80;;;;;;;27.65;41.77;97836.22;5013875;28;20017;-53
2022/08/22 11:52:28;;;;;;;18.48;4.00;;;;;;;28.97;39.59;97837.94;5011194;28;20048;-54
2022/08/22 11:55:18;;;;;;;13.63;3.28;;;;;;;29.12;35.91;97838.78;5016632;28;20034;-54
2022/08/22 11:58:03;;;;;;;15.02;3.33;;;;;;;28.39;36.75;97827.72;5014848;28;20042;-53
2022/08/22 12:00:38;;;;;;;17.88;3.70;;;;;;;27.94;38.84;97833.91;5015622;28;20861;-55
2022/08/22 12:03:03;;;;;;;15.98;3.50;;;;;;;28.42;38.07;97832.72;5015357;28;20040;-54
2022/08/22 12:05:38;;;;;;;18.58;3.97;;;;;;;29.01;37.03;97836.56;5012316;28;20041;-53
2022/08/22 12:08:15;;;;;;;15.90;3.47;;;;;;;29.90;36.31;97831.09;5015811;28;20074;-53
2022/08/22 12:10:54;;;;;;;21.88;4.03;;;;;;;28.54;37.00;97819.72;5012397;28;20041;-53
2022/08/22 12:13:54;;;;;;;14.88;3.20;;;;;;;28.49;36.57;97822.13;5012510;28;20963;-53
2022/08/22 12:16:35;;;;;;;15.90;3.30;;;;;;;29.29;35.39;97812.59;5012805;28;20044;-54
2022/08/22 12:19:00;;;;;;;15.68;3.60;;;;;;;28.03;37.70;97822.13;5014387;28;20687;-56
2022/08/22 12:21:50;;;;;;;14.03;3.20;;;;;;;27.18;38.07;97818.31;5010368;28;20842;-53
2022/08/22 12:24:41;;;;;;;17.05;3.70;;;;;;;27.75;38.15;97809.22;5013049;28;20276;-53